createdAt,value
2022-08-12T00:00:31.620Z,9.10
2022-08-12T00:02:02.989Z,9.07
2022-08-12T00:03:25.871Z,8.85
2022-08-12T00:04:47.074Z,9.50
2022-08-12T00:06:09.621Z,9.77
2022-08-12T00:07:31.500Z,9.73
2022-08-12T00:08:53.805Z,9.80
2022-08-12T00:10:14.665Z,10.18
2022-08-12T00:11:35.249Z,9.45
2022-08-12T00:12:56.773Z,9.40
2022-08-12T00:15:38.396Z,9.90
2022-08-12T00:16:59.454Z,9.52
2022-08-12T00:18:23.147Z,9.80
2022-08-12T00:19:44.181Z,9.02
2022-08-12T00:21:05.363Z,10.07
2022-08-12T00:22:26.628Z,9.82
2022-08-12T00:23:47.379Z,9.85
2022-08-12T00:25:08.106Z,10.10
2022-08-12T00:26:33.339Z,10.15
2022-08-12T00:27:54.107Z,10.70
2022-08-12T00:29:14.639Z,10.55
2022-08-12T00:30:35.522Z,10.00
2022-08-12T00:31:56.294Z,10.20
2022-08-12T00:33:17.134Z,10.30
2022-08-12T00:34:38.199Z,9.57
2022-08-12T00:35:58.555Z,10.25
2022-08-12T00:37:20.616Z,10.23
2022-08-12T00:38:41.619Z,10.57
2022-08-12T00:40:02.038Z,10.70
2022-08-12T00:41:26.864Z,10.70
2022-08-12T00:42:29.601Z,10.52
2022-08-12T00:43:35.179Z,10.35
2022-08-12T00:44:40.578Z,10.45
2022-08-12T00:46:03.929Z,10.40
2022-08-12T00:47:05.993Z,9.98
2022-08-12T00:48:07.931Z,9.25
2022-08-12T00:49:10.529Z,9.50
2022-08-12T00:50:19.417Z,9.80
2022-08-12T00:51:21.785Z,9.85
2022-08-12T00:52:25.131Z,9.95
2022-08-12T00:53:29.495Z,10.10
2022-08-12T00:54:32.302Z,10.40
2022-08-12T00:55:34.281Z,9.90
2022-08-12T00:56:38.737Z,9.50
2022-08-12T00:57:48.026Z,10.80
2022-08-12T00:58:52.662Z,10.38
2022-08-12T01:00:16.673Z,9.93
2022-08-12T01:01:19.829Z,9.50
2022-08-12T01:02:27.901Z,10.05
2022-08-12T01:03:56.007Z,9.07
2022-08-12T01:05:23.413Z,10.10
2022-08-12T01:06:51.040Z,9.93
2022-08-12T01:08:15.199Z,9.65
2022-08-12T01:09:36.369Z,8.43
2022-08-12T01:10:59.638Z,9.32
2022-08-12T01:12:02.166Z,8.52
2022-08-12T01:13:18.740Z,9.23
2022-08-12T01:14:26.747Z,9.45
2022-08-12T01:15:29.431Z,9.30
2022-08-12T01:16:32.637Z,9.35
2022-08-12T01:17:35.877Z,10.02
2022-08-12T01:18:39.954Z,10.63
2022-08-12T01:19:42.136Z,10.90
2022-08-12T01:20:51.852Z,10.80
2022-08-12T01:22:47.630Z,10.45
2022-08-12T01:24:30.441Z,10.07
2022-08-12T01:25:55.545Z,9.43
2022-08-12T01:26:59.382Z,10.90
2022-08-12T01:28:04.198Z,9.82
2022-08-12T01:29:07.738Z,9.35
2022-08-12T01:30:12.078Z,9.45
2022-08-12T01:32:37.988Z,9.93
2022-08-12T01:34:35.371Z,10.23
2022-08-12T01:35:33.179Z,10.85
2022-08-12T01:36:56.489Z,11.15
2022-08-12T01:38:13.990Z,10.98
2022-08-12T01:39:17.770Z,10.95
2022-08-12T01:40:35.437Z,10.40
2022-08-12T01:41:51.121Z,9.68
2022-08-12T01:43:00.390Z,10.32
2022-08-12T01:44:03.794Z,10.70
2022-08-12T01:45:06.771Z,10.48
2022-08-12T01:46:37.516Z,9.88
2022-08-12T01:48:19.579Z,9.40
2022-08-12T01:49:53.951Z,9.32
2022-08-12T01:51:08.235Z,8.93
2022-08-12T01:52:29.116Z,9.32
2022-08-12T01:53:58.846Z,9.98
2022-08-12T01:55:02.363Z,9.15
2022-08-12T01:56:04.541Z,10.00
2022-08-12T01:57:58.168Z,9.48
2022-08-12T01:59:12.665Z,10.27
2022-08-12T02:00:20.074Z,8.88
2022-08-12T02:01:30.629Z,9.27
2022-08-12T02:02:39.664Z,9.57
2022-08-12T02:04:09.943Z,9.45
2022-08-12T02:05:42.286Z,10.02
2022-08-12T02:07:15.572Z,10.00
2022-08-12T02:09:01.065Z,9.75
2022-08-12T02:10:50.970Z,11.85
2022-08-12T02:12:28.693Z,12.80
2022-08-12T02:14:00.352Z,10.93
2022-08-12T02:15:31.489Z,10.85
2022-08-12T02:16:36.527Z,10.60
2022-08-12T02:17:55.674Z,10.23
2022-08-12T02:19:35.877Z,12.30
2022-08-12T02:20:51.981Z,10.75
2022-08-12T02:22:27.691Z,10.85
2022-08-12T02:23:31.224Z,10.05
2022-08-12T02:24:37.598Z,10.90
2022-08-12T02:25:44.606Z,9.95
2022-08-12T02:26:49.198Z,10.80
2022-08-12T02:27:54.802Z,9.77
2022-08-12T02:28:58.153Z,10.98
2022-08-12T02:30:00.075Z,12.88
2022-08-12T02:31:09.162Z,12.90
2022-08-12T02:32:11.732Z,11.82
2022-08-12T02:33:14.077Z,12.25
2022-08-12T02:34:17.809Z,11.45
2022-08-12T02:35:23.142Z,11.07
2022-08-12T02:36:25.660Z,10.45
2022-08-12T02:37:31.370Z,9.90
2022-08-12T02:38:35.520Z,9.98
2022-08-12T02:39:41.082Z,9.77
2022-08-12T02:40:47.966Z,8.73
2022-08-12T02:41:52.254Z,9.65
2022-08-12T02:43:22.410Z,8.57
2022-08-12T02:44:28.488Z,9.13
2022-08-12T02:46:01.663Z,8.88
2022-08-12T02:47:06.488Z,8.68
2022-08-12T02:48:10.723Z,8.23
2022-08-12T02:49:25.690Z,7.55
2022-08-12T02:50:31.723Z,8.07
2022-08-12T02:51:40.902Z,7.97
2022-08-12T02:52:43.315Z,7.82
2022-08-12T02:53:45.690Z,8.60
2022-08-12T02:55:28.300Z,8.38
2022-08-12T02:56:50.728Z,8.13
2022-08-12T02:57:53.468Z,8.40
2022-08-12T02:58:56.427Z,8.35
2022-08-12T03:00:00.863Z,7.97
2022-08-12T03:01:06.875Z,8.55
2022-08-12T03:02:12.525Z,7.78
2022-08-12T03:03:15.599Z,8.80
2022-08-12T03:04:32.960Z,8.65
2022-08-12T03:05:44.393Z,9.20
2022-08-12T03:07:02.709Z,9.02
2022-08-12T03:08:12.162Z,9.10
2022-08-12T03:09:23.862Z,8.80
2022-08-12T03:10:36.763Z,8.70
2022-08-12T03:11:42.869Z,9.30
2022-08-12T03:12:53.889Z,8.75
2022-08-12T03:14:00.614Z,10.35
2022-08-12T03:15:13.458Z,8.77
2022-08-12T03:16:16.082Z,9.88
2022-08-12T03:17:35.892Z,9.05
2022-08-12T03:18:45.736Z,10.10
2022-08-12T03:20:09.327Z,10.43
2022-08-12T03:21:16.027Z,10.10
2022-08-12T03:22:21.137Z,9.68
2022-08-12T03:23:29.747Z,9.60
2022-08-12T03:24:34.423Z,10.35
2022-08-12T03:25:40.412Z,9.95
2022-08-12T03:26:45.263Z,10.05
2022-08-12T03:27:51.858Z,9.30
2022-08-12T03:28:57.062Z,10.50
2022-08-12T03:29:59.696Z,9.93
2022-08-12T03:31:09.591Z,9.88
2022-08-12T03:32:35.799Z,10.40
2022-08-12T03:33:40.088Z,10.05
2022-08-12T03:34:43.109Z,9.63
2022-08-12T03:35:47.445Z,8.75
2022-08-12T03:36:50.713Z,10.38
2022-08-12T03:38:05.691Z,9.80
2022-08-12T03:39:49.106Z,9.60
2022-08-12T03:41:18.103Z,9.50
2022-08-12T03:42:34.745Z,9.63
2022-08-12T03:44:17.708Z,9.80
2022-08-12T03:45:51.916Z,10.02
2022-08-12T03:47:25.409Z,9.82
2022-08-12T03:48:46.201Z,9.30
2022-08-12T03:50:07.540Z,9.07
2022-08-12T03:52:51.312Z,8.98
2022-08-12T03:54:12.427Z,10.52
2022-08-12T03:55:34.138Z,10.02
2022-08-12T03:56:55.339Z,9.65
2022-08-12T03:58:16.080Z,9.52
2022-08-12T03:59:36.771Z,10.05
2022-08-12T04:00:38.758Z,9.90
2022-08-12T04:01:41.401Z,10.98
2022-08-12T04:02:43.516Z,9.45
2022-08-12T04:03:55.016Z,9.40
2022-08-12T04:04:57.820Z,10.75
2022-08-12T04:06:00.136Z,9.38
2022-08-12T04:07:08.100Z,9.48
2022-08-12T04:08:12.208Z,8.45
2022-08-12T04:09:16.798Z,9.70
2022-08-12T04:10:19.670Z,9.35
2022-08-12T04:11:46.750Z,9.43
2022-08-12T04:13:17.216Z,9.80
2022-08-12T04:14:21.149Z,9.60
2022-08-12T04:15:26.238Z,10.48
2022-08-12T04:16:28.838Z,9.52
2022-08-12T04:17:34.444Z,9.52
2022-08-12T04:18:43.897Z,9.38
2022-08-12T04:19:48.895Z,9.18
2022-08-12T04:20:52.922Z,9.77
2022-08-12T04:22:03.718Z,9.07
2022-08-12T04:23:16.708Z,9.48
2022-08-12T04:24:20.824Z,8.60
2022-08-12T04:25:25.807Z,9.52
2022-08-12T04:26:29.249Z,9.20
2022-08-12T04:27:32.769Z,10.18
2022-08-12T04:28:35.681Z,8.80
2022-08-12T04:30:31.276Z,9.45
2022-08-12T04:31:01.440Z,8.90
2022-08-12T04:32:05.190Z,8.82
2022-08-12T04:33:12.706Z,9.00
2022-08-12T04:34:14.702Z,9.32
2022-08-12T04:35:18.481Z,9.00
2022-08-12T04:36:20.954Z,9.38
2022-08-12T04:38:39.236Z,8.13
2022-08-12T04:39:42.440Z,8.32
2022-08-12T04:40:46.276Z,8.73
2022-08-12T04:41:58.378Z,8.50
2022-08-12T04:43:01.709Z,7.88
2022-08-12T04:44:06.447Z,8.30
2022-08-12T04:45:10.316Z,8.82
2022-08-12T04:46:17.559Z,8.48
2022-08-12T04:47:24.316Z,7.90
2022-08-12T04:48:26.308Z,7.82
2022-08-12T04:49:32.348Z,8.00
2022-08-12T04:50:37.096Z,7.72
2022-08-12T04:51:39.966Z,7.13
2022-08-12T04:52:42.349Z,7.43
2022-08-12T04:53:45.291Z,7.75
2022-08-12T04:54:48.298Z,7.20
2022-08-12T04:55:52.498Z,6.90
2022-08-12T04:57:04.026Z,7.38
2022-08-12T05:00:03.967Z,7.65
2022-08-12T05:01:24.995Z,7.70
2022-08-12T05:02:27.214Z,6.97
2022-08-12T05:03:46.842Z,6.95
2022-08-12T05:04:52.037Z,7.22
2022-08-12T05:05:58.135Z,6.25
2022-08-12T05:07:00.824Z,6.78
2022-08-12T05:08:03.097Z,7.28
2022-08-12T05:09:13.234Z,6.93
2022-08-12T05:10:21.406Z,6.47
2022-08-12T05:11:36.929Z,6.32
2022-08-12T05:12:57.937Z,6.05
2022-08-12T05:14:01.547Z,6.03
2022-08-12T05:15:29.156Z,6.45
2022-08-12T05:16:41.595Z,6.18
2022-08-12T05:17:49.837Z,6.20
2022-08-12T05:18:59.553Z,5.38
2022-08-12T05:20:14.653Z,5.72
2022-08-12T05:21:24.276Z,5.50
2022-08-12T05:22:27.417Z,5.45
2022-08-12T05:23:32.889Z,5.78
2022-08-12T05:24:37.294Z,6.13
2022-08-12T05:26:02.280Z,5.55
2022-08-12T05:27:05.180Z,6.07
2022-08-12T05:28:07.995Z,6.18
2022-08-12T05:30:08.051Z,6.22
2022-08-12T05:30:35.615Z,6.25
2022-08-12T05:31:46.173Z,5.85
2022-08-12T05:32:50.488Z,5.20
2022-08-12T05:33:58.066Z,5.50
2022-08-12T05:35:08.251Z,5.72
2022-08-12T05:36:14.031Z,4.82
2022-08-12T05:37:17.358Z,5.28
2022-08-12T05:38:39.115Z,5.13
2022-08-12T05:39:41.999Z,5.55
2022-08-12T05:40:44.105Z,5.07
2022-08-12T05:41:46.712Z,5.57
2022-08-12T05:42:53.707Z,6.18
2022-08-12T05:44:06.410Z,5.32
2022-08-12T05:45:12.880Z,6.15
2022-08-12T05:46:20.728Z,5.82
2022-08-12T05:49:45.128Z,5.00
2022-08-12T05:51:01.197Z,4.07
2022-08-12T05:52:06.723Z,4.32
2022-08-12T05:53:10.589Z,4.75
2022-08-12T05:54:16.407Z,4.80
2022-08-12T05:55:18.393Z,4.70
2022-08-12T05:56:25.879Z,4.43
2022-08-12T05:57:27.640Z,4.80
2022-08-12T05:58:31.036Z,4.47
2022-08-12T05:59:32.808Z,4.03
2022-08-12T06:00:36.096Z,4.35
2022-08-12T06:02:10.885Z,4.05
2022-08-12T06:03:02.379Z,4.07
2022-08-12T06:04:04.807Z,4.50
2022-08-12T06:05:07.640Z,4.75
2022-08-12T06:06:10.986Z,4.15
2022-08-12T06:08:00.911Z,4.07
2022-08-12T06:08:36.105Z,3.95
2022-08-12T06:09:38.226Z,4.10
2022-08-12T06:10:40.609Z,3.85
2022-08-12T06:12:04.823Z,3.78
2022-08-12T06:13:06.322Z,3.42
2022-08-12T06:14:11.862Z,3.65
2022-08-12T06:15:14.172Z,3.25
2022-08-12T06:16:20.321Z,3.47
2022-08-12T06:17:23.343Z,3.30
2022-08-12T06:18:29.318Z,3.08
2022-08-12T06:20:27.306Z,3.60
2022-08-12T06:21:01.837Z,3.47
2022-08-12T06:22:04.325Z,3.70
2022-08-12T06:23:06.752Z,4.13
2022-08-12T06:24:09.148Z,4.03
2022-08-12T06:25:18.557Z,3.85
2022-08-12T06:26:24.178Z,3.70
2022-08-12T06:27:26.654Z,3.88
2022-08-12T06:28:30.680Z,4.10
2022-08-12T06:30:06.940Z,3.60
2022-08-12T06:31:24.780Z,3.13
2022-08-12T06:32:18.039Z,2.75
2022-08-12T06:33:22.709Z,3.38
2022-08-12T06:35:25.527Z,3.53
2022-08-12T06:36:00.104Z,3.00
2022-08-12T06:37:03.286Z,3.40
2022-08-12T06:38:05.220Z,3.45
2022-08-12T06:39:14.469Z,3.08
2022-08-12T06:40:38.520Z,3.25
2022-08-12T06:42:10.693Z,3.42
2022-08-12T06:43:21.326Z,2.80
2022-08-12T06:44:23.465Z,4.47
2022-08-12T06:45:27.146Z,2.97
2022-08-12T06:46:48.136Z,2.13
2022-08-12T06:47:50.076Z,2.50
2022-08-12T06:48:57.481Z,2.20
2022-08-12T06:49:59.296Z,2.30
2022-08-12T06:51:03.999Z,2.40
2022-08-12T06:52:07.604Z,2.40
2022-08-12T06:53:11.401Z,2.58
2022-08-12T06:54:13.697Z,2.40
2022-08-12T06:55:33.733Z,2.85
2022-08-12T06:57:03.167Z,2.40
2022-08-12T06:58:07.440Z,2.65
2022-08-12T06:59:14.605Z,2.42
2022-08-12T07:00:22.725Z,2.97
2022-08-12T07:01:33.589Z,2.38
2022-08-12T07:02:37.170Z,2.47
2022-08-12T07:03:39.333Z,2.10
2022-08-12T07:04:41.432Z,2.42
2022-08-12T07:05:44.041Z,2.45
2022-08-12T07:06:45.977Z,2.25
2022-08-12T07:07:48.039Z,2.33
2022-08-12T07:08:50.278Z,2.67
2022-08-12T07:10:04.500Z,2.65
2022-08-12T07:11:13.568Z,2.15
2022-08-12T07:12:19.446Z,2.63
2022-08-12T07:13:22.454Z,3.00
2022-08-12T07:14:24.264Z,2.83
2022-08-12T07:15:27.394Z,2.90
2022-08-12T07:16:49.591Z,2.83
2022-08-12T07:18:00.095Z,2.78
2022-08-12T07:19:04.182Z,2.30
2022-08-12T07:20:29.716Z,2.50
2022-08-12T07:22:00.176Z,2.78
2022-08-12T07:22:54.168Z,2.67
2022-08-12T07:23:56.803Z,2.78
2022-08-12T07:25:18.021Z,3.10
2022-08-12T07:26:21.511Z,2.50
2022-08-12T07:27:27.479Z,2.38
2022-08-12T07:28:33.807Z,2.60
2022-08-12T07:30:03.793Z,2.47
2022-08-12T07:30:58.477Z,2.72
2022-08-12T07:32:00.395Z,2.60
2022-08-12T07:33:06.064Z,2.75
2022-08-12T07:34:08.348Z,2.72
2022-08-12T07:35:10.117Z,3.00
2022-08-12T07:36:14.605Z,2.88
2022-08-12T07:37:17.945Z,2.78
2022-08-12T07:38:33.679Z,3.10
2022-08-12T07:39:35.756Z,3.17
2022-08-12T07:40:37.600Z,3.28
2022-08-12T07:41:39.918Z,3.15
2022-08-12T07:42:44.476Z,2.03
2022-08-12T07:43:54.706Z,2.30
2022-08-12T07:44:56.751Z,2.20
2022-08-12T07:46:00.647Z,2.15
2022-08-12T07:47:03.427Z,2.15
2022-08-12T07:48:06.460Z,3.33
2022-08-12T07:49:11.247Z,3.00
2022-08-12T07:50:18.934Z,2.67
2022-08-12T07:51:26.283Z,3.03
2022-08-12T07:52:31.141Z,4.03
2022-08-12T07:53:33.738Z,2.67
2022-08-12T07:54:49.652Z,2.63
2022-08-12T07:55:51.592Z,1.83
2022-08-12T07:56:53.306Z,2.05
2022-08-12T07:57:59.486Z,2.40
2022-08-12T07:59:03.171Z,2.38
2022-08-12T08:00:06.552Z,2.00
2022-08-12T08:01:15.556Z,2.45
2022-08-12T08:02:17.572Z,2.67
2022-08-12T08:03:19.339Z,3.53
2022-08-12T08:04:39.777Z,3.72
2022-08-12T08:05:46.230Z,2.10
2022-08-12T08:06:51.955Z,2.00
2022-08-12T08:07:55.647Z,2.22
2022-08-12T08:08:59.008Z,2.38
2022-08-12T08:10:02.388Z,2.22
2022-08-12T08:11:23.260Z,2.22
2022-08-12T08:12:44.520Z,2.25
2022-08-12T08:14:49.922Z,2.63
2022-08-12T08:16:03.335Z,2.40
2022-08-12T08:17:06.487Z,2.90
2022-08-12T08:18:11.519Z,3.08
2022-08-12T08:19:19.356Z,3.25
2022-08-12T08:20:23.613Z,3.05
2022-08-12T08:21:33.159Z,3.17
2022-08-12T08:22:50.077Z,2.28
2022-08-12T08:24:10.876Z,3.05
2022-08-12T08:25:34.402Z,2.65
2022-08-12T08:26:36.560Z,2.70
2022-08-12T08:27:47.014Z,3.30
2022-08-12T08:28:50.263Z,2.22
2022-08-12T08:29:55.385Z,1.98
2022-08-12T08:30:57.392Z,2.10
2022-08-12T08:32:01.560Z,2.55
2022-08-12T08:33:11.253Z,2.40
2022-08-12T08:34:54.558Z,2.17
2022-08-12T08:35:54.219Z,2.00
2022-08-12T08:36:56.834Z,2.60
2022-08-12T08:38:17.627Z,2.38
2022-08-12T08:39:32.775Z,1.90
2022-08-12T08:40:58.849Z,1.90
2022-08-12T08:42:20.555Z,1.70
2022-08-12T08:43:23.457Z,1.70
2022-08-12T08:44:26.084Z,1.95
2022-08-12T08:45:29.938Z,2.20
2022-08-12T08:46:37.753Z,2.05
2022-08-12T08:47:45.894Z,1.98
2022-08-12T08:48:49.176Z,2.10
2022-08-12T08:49:51.127Z,2.20
2022-08-12T08:51:04.090Z,1.80
2022-08-12T08:52:10.085Z,1.85
2022-08-12T08:53:12.809Z,2.33
2022-08-12T08:54:14.987Z,1.73
2022-08-12T08:55:22.178Z,1.80
2022-08-12T08:56:29.794Z,2.30
2022-08-12T08:58:53.662Z,2.40
2022-08-12T08:59:55.452Z,2.10
2022-08-12T09:00:57.325Z,2.08
2022-08-12T09:02:03.532Z,2.03
2022-08-12T09:03:15.617Z,1.90
2022-08-12T09:05:13.995Z,2.13
2022-08-12T09:06:02.856Z,2.60
2022-08-12T09:07:17.877Z,1.77
2022-08-12T09:08:27.936Z,1.70
2022-08-12T09:10:01.605Z,1.95
2022-08-12T09:11:00.031Z,2.28
2022-08-12T09:14:10.479Z,2.10
2022-08-12T09:15:19.131Z,2.10
2022-08-12T09:16:23.358Z,2.03
2022-08-12T09:17:26.094Z,1.60
2022-08-12T09:18:44.208Z,2.00
2022-08-12T09:19:46.160Z,2.30
2022-08-12T09:20:50.874Z,2.13
2022-08-12T09:21:54.792Z,2.05
2022-08-12T09:22:58.920Z,1.70
2022-08-12T09:24:07.619Z,2.10
2022-08-12T09:25:25.373Z,2.00
2022-08-12T09:26:38.131Z,2.22
2022-08-12T09:28:04.133Z,2.05
2022-08-12T09:29:12.340Z,1.90
2022-08-12T09:30:16.262Z,2.30
2022-08-12T09:32:03.728Z,1.88
2022-08-12T09:33:05.007Z,1.95
2022-08-12T09:34:29.426Z,1.98
2022-08-12T09:35:42.937Z,1.90
2022-08-12T09:37:00.834Z,1.90
2022-08-12T09:38:04.792Z,2.17
2022-08-12T09:40:06.284Z,2.20
2022-08-12T09:41:01.487Z,2.17
2022-08-12T09:42:38.734Z,2.20
2022-08-12T09:44:00.804Z,1.80
2022-08-12T09:45:24.218Z,2.03
2022-08-12T09:46:46.389Z,2.05
2022-08-12T09:47:59.642Z,2.20
2022-08-12T09:49:03.914Z,2.15
2022-08-12T09:50:20.089Z,1.70
2022-08-12T09:51:22.889Z,1.80
2022-08-12T09:52:24.926Z,1.70
2022-08-12T09:53:36.081Z,1.50
2022-08-12T09:54:42.970Z,1.90
2022-08-12T09:56:06.655Z,2.47
2022-08-12T09:58:44.533Z,2.10
2022-08-12T09:58:57.791Z,2.03
2022-08-12T10:00:13.176Z,2.17
2022-08-12T10:01:35.031Z,1.85
2022-08-12T10:03:31.198Z,2.53
2022-08-12T10:04:51.752Z,2.30
2022-08-12T10:06:27.678Z,1.83
2022-08-12T10:07:24.749Z,1.88
2022-08-12T10:09:57.093Z,3.20
2022-08-12T10:11:19.985Z,2.15
2022-08-12T10:12:41.085Z,2.25
2022-08-12T10:13:46.332Z,2.35
2022-08-12T10:14:54.976Z,2.42
2022-08-12T10:16:05.277Z,1.67
2022-08-12T10:17:08.518Z,1.60
2022-08-12T10:18:12.372Z,3.15
2022-08-12T10:19:17.157Z,2.17
2022-08-12T10:20:19.662Z,2.10
2022-08-12T10:21:37.579Z,2.00
2022-08-12T10:22:41.620Z,2.08
2022-08-12T10:23:46.191Z,1.92
2022-08-12T10:25:17.496Z,1.95
2022-08-12T10:26:40.864Z,1.80
2022-08-12T10:28:04.924Z,1.85
2022-08-12T10:30:11.933Z,2.10
2022-08-12T10:30:58.308Z,1.98
2022-08-12T10:32:21.183Z,2.05
2022-08-12T10:33:31.447Z,2.35
2022-08-12T10:34:37.524Z,1.95
2022-08-12T10:35:41.558Z,2.50
2022-08-12T10:36:45.107Z,1.90
2022-08-12T10:38:39.258Z,2.28
2022-08-12T10:40:02.094Z,2.28
2022-08-12T10:41:05.690Z,2.97
2022-08-12T10:42:34.501Z,2.00
2022-08-12T10:43:55.795Z,2.22
2022-08-12T10:45:06.081Z,2.10
2022-08-12T10:46:13.394Z,2.22
2022-08-12T10:47:26.015Z,2.10
2022-08-12T10:48:34.143Z,2.00
2022-08-12T10:50:04.662Z,2.10
2022-08-12T10:52:02.763Z,2.25
2022-08-12T10:52:37.771Z,1.95
2022-08-12T10:53:44.874Z,1.70
2022-08-12T10:54:51.147Z,1.80
2022-08-12T10:55:56.481Z,1.88
2022-08-12T10:57:00.933Z,3.13
2022-08-12T10:58:27.967Z,2.70
2022-08-12T11:00:31.206Z,3.92
2022-08-12T11:01:25.833Z,2.20
2022-08-12T11:04:24.519Z,1.70
2022-08-12T11:04:27.158Z,1.73
2022-08-12T11:05:00.572Z,2.13
2022-08-12T11:07:07.395Z,2.00
2022-08-12T11:08:34.095Z,2.20
2022-08-12T11:09:10.709Z,1.90
2022-08-12T11:10:14.081Z,2.85
2022-08-12T11:12:07.918Z,2.83
2022-08-12T11:12:58.597Z,1.90
2022-08-12T11:14:02.146Z,2.00
2022-08-12T11:15:19.107Z,1.92
2022-08-12T11:16:27.802Z,2.05
2022-08-12T11:17:52.249Z,2.10
2022-08-12T11:18:59.503Z,1.90
2022-08-12T11:20:08.297Z,1.67
2022-08-12T11:21:19.559Z,1.80
2022-08-12T11:22:24.516Z,2.00
2022-08-12T11:23:35.958Z,1.77
2022-08-12T11:24:39.799Z,1.92
2022-08-12T11:25:57.685Z,2.03
2022-08-12T11:27:08.030Z,3.30
2022-08-12T11:28:16.517Z,6.88
2022-08-12T11:29:22.126Z,2.53
2022-08-12T11:30:31.549Z,2.03
2022-08-12T11:31:41.002Z,2.20
2022-08-12T11:32:55.658Z,1.95
2022-08-12T11:34:04.970Z,3.10
2022-08-12T11:35:15.132Z,1.73
2022-08-12T11:36:21.945Z,2.67
2022-08-12T11:37:26.111Z,1.98
2022-08-12T11:38:28.458Z,2.20
2022-08-12T11:40:53.305Z,2.17
2022-08-12T11:41:55.501Z,2.25
2022-08-12T11:43:18.602Z,2.15
2022-08-12T11:44:37.233Z,1.90
2022-08-12T11:45:46.797Z,2.22
2022-08-12T11:46:51.454Z,2.17
2022-08-12T11:47:55.979Z,2.92
2022-08-12T11:48:57.742Z,2.17
2022-08-12T11:49:59.456Z,2.50
2022-08-12T11:51:03.508Z,2.17
2022-08-12T11:52:17.574Z,2.55
2022-08-12T11:53:59.035Z,2.10
2022-08-12T11:54:50.939Z,2.30
2022-08-12T11:55:54.970Z,1.85
2022-08-12T11:57:02.363Z,2.22
2022-08-12T11:58:40.456Z,2.25
2022-08-12T12:02:10.233Z,2.00
2022-08-12T12:03:12.696Z,2.22
2022-08-12T12:04:28.842Z,2.65
2022-08-12T12:05:41.945Z,2.42
2022-08-12T12:06:52.852Z,2.53
2022-08-12T12:08:38.197Z,2.20
2022-08-12T12:09:16.960Z,2.22
2022-08-12T12:10:20.481Z,2.80
2022-08-12T12:11:25.776Z,2.50
2022-08-12T12:12:27.772Z,2.22
2022-08-12T12:14:07.630Z,2.80
2022-08-12T12:14:54.521Z,2.25
2022-08-12T12:15:56.799Z,2.40
2022-08-12T12:17:02.017Z,2.40
2022-08-12T12:18:04.139Z,2.58
2022-08-12T12:19:05.941Z,2.92
2022-08-12T12:20:13.968Z,2.47
2022-08-12T12:21:16.286Z,2.58
2022-08-12T12:22:23.557Z,2.40
2022-08-12T12:23:30.926Z,2.25
2022-08-12T12:24:38.080Z,2.22
2022-08-12T12:26:06.246Z,2.38
2022-08-12T12:27:03.749Z,2.28
2022-08-12T12:28:06.431Z,2.45
2022-08-12T12:30:18.175Z,2.20
2022-08-12T12:30:30.493Z,1.95
2022-08-12T12:32:09.283Z,2.30
2022-08-12T12:32:55.007Z,2.20
2022-08-12T12:33:58.009Z,1.98
2022-08-12T12:35:13.561Z,1.77
2022-08-12T12:36:29.777Z,2.33
2022-08-12T12:38:05.288Z,2.20
2022-08-12T12:38:54.313Z,2.10
2022-08-12T12:39:58.337Z,2.00
2022-08-12T12:41:00.507Z,2.05
2022-08-12T12:42:42.551Z,1.92
2022-08-12T12:43:43.339Z,2.47
2022-08-12T12:44:51.094Z,2.45
2022-08-12T12:45:57.062Z,2.10
2022-08-12T12:46:58.974Z,2.65
2022-08-12T12:48:04.185Z,2.50
2022-08-12T12:49:10.862Z,2.72
2022-08-12T12:50:13.014Z,3.10
2022-08-12T12:51:55.122Z,2.53
2022-08-12T12:52:56.715Z,2.50
2022-08-12T12:54:08.326Z,2.50
2022-08-12T12:55:11.562Z,2.75
2022-08-12T12:56:21.083Z,2.42
2022-08-12T12:58:00.792Z,2.75
2022-08-12T12:59:06.050Z,2.65
2022-08-12T13:00:15.240Z,2.60
2022-08-12T13:01:25.654Z,2.60
2022-08-12T13:02:32.769Z,2.65
2022-08-12T13:03:49.122Z,2.60
2022-08-12T13:04:51.379Z,2.97
2022-08-12T13:05:55.356Z,2.55
2022-08-12T13:06:58.412Z,2.38
2022-08-12T13:08:01.769Z,2.80
2022-08-12T13:09:03.999Z,2.60
2022-08-12T13:10:06.742Z,2.60
2022-08-12T13:11:09.115Z,2.50
2022-08-12T13:12:12.588Z,2.38
2022-08-12T13:14:09.923Z,2.10
2022-08-12T13:14:40.126Z,2.08
2022-08-12T13:15:44.946Z,2.28
2022-08-12T13:16:47.588Z,2.33
2022-08-12T13:18:02.858Z,2.33
2022-08-12T13:19:07.731Z,2.33
2022-08-12T13:20:10.372Z,1.92
2022-08-12T13:21:15.872Z,2.13
2022-08-12T13:22:34.827Z,1.80
2022-08-12T13:23:37.767Z,2.10
2022-08-12T13:24:40.263Z,2.20
2022-08-12T13:25:42.248Z,2.28
2022-08-12T13:26:45.798Z,3.67
2022-08-12T13:27:48.604Z,2.05
2022-08-12T13:28:53.286Z,3.58
2022-08-12T13:30:01.989Z,1.98
2022-08-12T13:31:06.488Z,2.10
2022-08-12T13:32:19.874Z,2.00
2022-08-12T13:34:33.985Z,1.92
2022-08-12T13:34:53.438Z,2.22
2022-08-12T13:36:11.204Z,2.03
2022-08-12T13:37:17.732Z,1.55
2022-08-12T13:38:26.623Z,1.98
2022-08-12T13:39:37.203Z,2.58
2022-08-12T13:40:42.066Z,2.83
2022-08-12T13:41:49.554Z,3.03
2022-08-12T13:42:57.529Z,3.17
2022-08-12T13:44:00.474Z,3.35
2022-08-12T13:45:03.308Z,3.10
2022-08-12T13:46:12.275Z,2.95
2022-08-12T13:47:19.419Z,2.80
2022-08-12T13:48:23.680Z,3.42
2022-08-12T13:49:53.401Z,3.28
2022-08-12T13:50:56.475Z,3.10
2022-08-12T13:51:58.293Z,4.13
2022-08-12T13:53:06.343Z,3.45
2022-08-12T13:54:23.816Z,3.20
2022-08-12T13:55:31.087Z,3.20
2022-08-12T13:56:36.745Z,3.20
2022-08-12T13:57:44.620Z,3.25
2022-08-12T13:58:52.677Z,3.65
2022-08-12T13:59:55.428Z,3.20
2022-08-12T14:01:05.808Z,3.40
2022-08-12T14:02:13.248Z,3.05
2022-08-12T14:03:16.393Z,2.90
2022-08-12T14:04:19.057Z,2.90
2022-08-12T14:05:30.981Z,2.80
2022-08-12T14:06:41.278Z,3.10
2022-08-12T14:07:55.213Z,3.38
2022-08-12T14:08:57.057Z,4.13
2022-08-12T14:10:17.595Z,3.50
2022-08-12T14:11:25.385Z,3.25
2022-08-12T14:12:40.222Z,3.33
2022-08-12T14:14:05.411Z,3.15
2022-08-12T14:15:15.606Z,2.80
2022-08-12T14:16:37.576Z,2.83
2022-08-12T14:17:40.820Z,2.60
2022-08-12T14:18:47.413Z,2.90
2022-08-12T14:20:09.956Z,3.00
2022-08-12T14:21:18.376Z,2.80
2022-08-12T14:22:38.180Z,3.10
2022-08-12T14:24:05.541Z,4.30
2022-08-12T14:25:04.589Z,3.70
2022-08-12T14:26:12.074Z,3.08
2022-08-12T14:27:14.052Z,4.18
2022-08-12T14:28:37.317Z,3.17
2022-08-12T14:30:05.474Z,3.13
2022-08-12T14:31:18.495Z,6.10
2022-08-12T14:32:20.679Z,2.60
2022-08-12T14:33:27.163Z,2.92
2022-08-12T14:34:28.903Z,2.72
2022-08-12T14:35:41.402Z,2.60
2022-08-12T14:36:47.973Z,2.03
2022-08-12T14:37:57.784Z,2.63
2022-08-12T14:39:02.361Z,4.10
2022-08-12T14:40:05.624Z,3.13
2022-08-12T14:41:18.746Z,2.30
2022-08-12T14:42:20.450Z,2.78
2022-08-12T14:43:31.647Z,2.63
2022-08-12T14:45:00.103Z,2.47
2022-08-12T14:46:07.845Z,2.35
2022-08-12T14:47:10.247Z,2.47
2022-08-12T14:48:14.903Z,2.42
2022-08-12T14:50:00.816Z,2.67
2022-08-12T14:51:03.088Z,2.63
2022-08-12T14:52:42.582Z,2.45
2022-08-12T14:56:59.254Z,2.00
2022-08-12T14:58:00.514Z,2.10
2022-08-12T14:59:23.531Z,2.22
2022-08-12T15:00:52.537Z,2.00
2022-08-12T15:01:56.756Z,2.20
2022-08-12T15:02:58.486Z,1.92
2022-08-12T15:04:02.374Z,2.20
2022-08-12T15:05:04.399Z,2.33
2022-08-12T15:06:44.340Z,2.60
2022-08-12T15:07:33.338Z,1.98
2022-08-12T15:08:45.601Z,2.00
2022-08-12T15:09:49.985Z,2.13
2022-08-12T15:10:53.936Z,1.95
2022-08-12T15:12:03.205Z,2.17
2022-08-12T15:14:10.929Z,3.83
2022-08-12T15:15:20.139Z,2.20
2022-08-12T15:16:23.453Z,2.10
2022-08-12T15:17:37.963Z,7.53
2022-08-12T15:18:40.379Z,3.25
2022-08-12T15:20:12.100Z,2.22
2022-08-12T15:21:22.575Z,2.40
2022-08-12T15:22:37.595Z,2.13
2022-08-12T15:23:55.250Z,2.08
2022-08-12T15:24:57.431Z,3.22
2022-08-12T15:26:03.583Z,3.58
2022-08-12T15:27:08.830Z,2.00
2022-08-12T15:28:21.338Z,2.25
2022-08-12T15:29:24.169Z,2.97
2022-08-12T15:30:30.351Z,2.58
2022-08-12T15:32:00.171Z,2.67
2022-08-12T15:32:56.195Z,2.00
2022-08-12T15:33:58.487Z,1.85
2022-08-12T15:35:00.809Z,1.88
2022-08-12T15:36:04.140Z,1.60
2022-08-12T15:37:05.840Z,2.35
2022-08-12T15:38:17.302Z,2.13
2022-08-12T15:39:21.405Z,1.80
2022-08-12T15:40:30.225Z,1.90
2022-08-12T15:41:49.237Z,1.83
2022-08-12T15:42:51.751Z,2.10
2022-08-12T15:44:37.965Z,1.48
2022-08-12T15:45:23.865Z,1.92
2022-08-12T15:46:27.526Z,1.88
2022-08-12T15:47:48.186Z,1.60
2022-08-12T15:48:51.811Z,1.92
2022-08-12T15:50:00.105Z,1.73
2022-08-12T15:51:04.073Z,1.85
2022-08-12T15:52:06.826Z,2.03
2022-08-12T15:53:15.549Z,2.03
2022-08-12T15:54:34.312Z,1.75
2022-08-12T15:55:46.159Z,2.10
2022-08-12T15:56:49.001Z,1.50
2022-08-12T15:57:55.561Z,1.80
2022-08-12T15:59:00.332Z,2.13
2022-08-12T16:00:07.805Z,1.80
2022-08-12T16:01:13.887Z,1.98
2022-08-12T16:02:18.600Z,2.05
2022-08-12T16:03:46.188Z,1.83
2022-08-12T16:04:51.452Z,1.90
2022-08-12T16:06:19.110Z,1.92